Time;durP1;ratioP1;P1;durP2;ratioP2;P2;SDS_P1;SDS_P2;PMS_P1;PMS_P2;Temp;Humidity;BMP_temperature;BMP_pressure;BME280_temperature;BME280_humidity;BME280_pressure;Samples;Min_cycle;Max_cycle;Signal;HPM_P1;HPM_P2
2023/07/05 00:01:57;;;;;;;3.83;2.22;;;12.20;99.90;;;;;;5034528;28;20029;-77
2023/07/05 00:04:22;;;;;;;3.38;1.80;;;12.20;99.90;;;;;;5035892;28;20366;-77
2023/07/05 00:06:52;;;;;;;5.53;2.33;;;12.20;99.90;;;;;;5026919;28;20021;-77
2023/07/05 00:09:18;;;;;;;4.50;1.92;;;12.20;99.90;;;;;;5039365;28;20092;-77
2023/07/05 00:11:43;;;;;;;3.17;1.90;;;12.20;99.90;;;;;;5047714;28;20152;-77
2023/07/05 00:14:09;;;;;;;3.80;2.20;;;12.20;99.90;;;;;;5038732;28;20025;-77
2023/07/05 00:16:34;;;;;;;4.25;1.83;;;12.10;99.90;;;;;;5048430;28;20087;-77
2023/07/05 00:19:00;;;;;;;3.63;2.13;;;12.20;99.90;;;;;;5037706;28;20033;-77
2023/07/05 00:21:25;;;;;;;3.00;1.98;;;12.20;99.90;;;;;;5037342;28;20049;-77
2023/07/05 00:23:51;;;;;;;4.30;1.83;;;12.20;99.90;;;;;;5017544;28;20048;-77
2023/07/05 00:26:16;;;;;;;2.13;1.80;;;12.10;99.90;;;;;;5014115;28;20457;-77
2023/07/05 00:28:42;;;;;;;3.13;1.60;;;12.10;99.90;;;;;;5036560;28;20049;-77
2023/07/05 00:31:08;;;;;;;2.20;2.03;;;12.10;99.90;;;;;;5039401;28;20032;-77
2023/07/05 00:33:34;;;;;;;2.33;2.13;;;12.10;99.90;;;;;;5031100;28;20656;-77
2023/07/05 00:36:00;;;;;;;2.60;1.45;;;12.10;99.90;;;;;;5035097;28;20037;-77
2023/07/05 00:38:26;;;;;;;1.95;1.75;;;12.10;99.90;;;;;;5016157;28;20025;-77
2023/07/05 00:40:52;;;;;;;4.05;2.10;;;12.10;99.90;;;;;;5046070;28;20024;-77
2023/07/05 00:43:19;;;;;;;2.45;2.05;;;12.10;99.90;;;;;;5033556;28;20068;-76
2023/07/05 00:45:58;;;;;;;1.70;1.58;;;12.10;99.90;;;;;;5039019;28;20029;-77
2023/07/05 00:48:34;;;;;;;3.00;2.13;;;12.10;99.90;;;;;;5039345;28;20481;-77
2023/07/05 00:51:04;;;;;;;4.43;1.85;;;12.10;99.90;;;;;;5049148;28;20016;-77
2023/07/05 00:53:33;;;;;;;3.45;2.03;;;12.10;99.90;;;;;;5038552;28;20022;-77
2023/07/05 00:56:07;;;;;;;2.05;1.65;;;12.20;99.90;;;;;;5041426;28;20090;-77
2023/07/05 00:58:33;;;;;;;2.33;1.70;;;12.10;99.90;;;;;;5024910;28;20036;-77
2023/07/05 01:00:58;;;;;;;2.90;1.77;;;12.10;99.90;;;;;;5039176;28;20029;-77
2023/07/05 01:03:26;;;;;;;3.80;2.05;;;12.20;99.90;;;;;;5016502;28;20045;-77
2023/07/05 01:05:55;;;;;;;3.58;2.00;;;12.10;99.90;;;;;;5026297;28;20348;-77
2023/07/05 01:08:21;;;;;;;4.72;1.85;;;12.20;99.90;;;;;;5040241;28;20018;-77
2023/07/05 01:11:12;;;;;;;2.85;1.92;;;12.20;99.90;;;;;;5049767;28;20021;-77
2023/07/05 01:13:46;;;;;;;3.38;1.63;;;12.20;99.90;;;;;;5022343;28;20041;-77
2023/07/05 01:16:25;;;;;;;2.83;1.80;;;12.20;99.90;;;;;;5028592;28;20026;-77
2023/07/05 01:18:58;;;;;;;6.85;2.50;;;12.20;99.90;;;;;;5024070;28;20022;-77
2023/07/05 01:21:36;;;;;;;5.20;1.95;;;12.20;99.90;;;;;;5037477;28;20052;-77
2023/07/05 01:24:20;;;;;;;4.85;2.65;;;12.30;99.90;;;;;;5031246;28;20024;-77
2023/07/05 01:26:55;;;;;;;3.33;2.38;;;12.30;99.90;;;;;;5040574;28;20144;-77
2023/07/05 01:30:11;;;;;;;3.92;2.95;;;12.30;99.90;;;;;;5039218;28;20426;-77
2023/07/05 01:32:43;;;;;;;4.55;2.83;;;12.30;99.90;;;;;;5015433;28;20484;-77
2023/07/05 01:35:18;;;;;;;3.88;2.20;;;12.30;99.90;;;;;;5038581;28;20476;-77
2023/07/05 01:37:45;;;;;;;4.23;2.57;;;12.30;99.90;;;;;;5042470;28;20029;-77
2023/07/05 01:40:31;;;;;;;5.13;2.95;;;12.30;99.90;;;;;;5043395;28;20055;-76
2023/07/05 01:42:59;;;;;;;4.65;2.60;;;12.40;99.90;;;;;;5022043;28;20088;-77
2023/07/05 01:45:43;;;;;;;4.25;2.83;;;12.40;99.90;;;;;;5025360;28;20033;-77
2023/07/05 01:48:34;;;;;;;7.25;3.05;;;12.40;99.90;;;;;;5024986;28;20060;-77
2023/07/05 01:51:27;;;;;;;6.43;3.28;;;12.40;99.90;;;;;;4992888;28;20059;-77
2023/07/05 01:54:11;;;;;;;7.15;3.25;;;12.50;99.90;;;;;;5011543;28;20033;-77
2023/07/05 01:57:16;;;;;;;8.68;3.28;;;12.50;99.90;;;;;;5023163;28;20029;-77
2023/07/05 01:59:48;;;;;;;6.18;2.95;;;12.50;99.90;;;;;;5045824;28;20029;-77
2023/07/05 02:02:16;;;;;;;7.75;4.10;;;12.60;99.90;;;;;;5027140;28;20037;-78
2023/07/05 02:04:43;;;;;;;5.72;3.75;;;12.60;99.90;;;;;;5016362;28;20036;-77
2023/07/05 02:07:09;;;;;;;7.15;3.55;;;12.60;99.90;;;;;;5028348;28;20079;-77
2023/07/05 02:09:37;;;;;;;7.32;4.28;;;12.60;99.90;;;;;;5023256;28;20625;-78
2023/07/05 02:12:03;;;;;;;5.82;3.70;;;12.60;99.90;;;;;;5025690;28;20057;-76
2023/07/05 02:14:29;;;;;;;6.57;3.85;;;12.60;99.90;;;;;;5022478;28;20052;-77
2023/07/05 02:16:54;;;;;;;7.78;3.88;;;12.60;99.90;;;;;;5047662;28;20477;-78
2023/07/05 02:19:20;;;;;;;9.30;4.22;;;12.70;99.90;;;;;;5018588;28;20033;-77
2023/07/05 02:21:46;;;;;;;5.72;3.63;;;12.70;99.90;;;;;;5016534;28;20040;-77
2023/07/05 02:24:11;;;;;;;8.50;4.05;;;12.60;99.90;;;;;;5029033;28;20009;-77
2023/07/05 02:26:37;;;;;;;10.55;5.03;;;12.70;99.90;;;;;;5029805;28;20024;-77
2023/07/05 02:29:03;;;;;;;6.93;4.18;;;12.70;99.90;;;;;;5012137;28;20136;-78
2023/07/05 02:31:29;;;;;;;6.57;4.22;;;12.70;99.90;;;;;;5037482;28;20037;-78
2023/07/05 02:33:55;;;;;;;7.53;4.22;;;12.70;99.90;;;;;;5020483;28;20033;-77
2023/07/05 02:36:20;;;;;;;4.47;3.85;;;12.80;99.90;;;;;;5020057;28;20036;-77
2023/07/05 02:38:46;;;;;;;8.02;4.20;;;12.80;99.90;;;;;;5052680;28;20024;-76
2023/07/05 02:41:11;;;;;;;5.97;3.97;;;12.80;99.90;;;;;;5057706;28;20040;-77
2023/07/05 02:43:37;;;;;;;6.68;4.15;;;12.80;99.90;;;;;;5019643;28;20367;-77
2023/07/05 02:46:05;;;;;;;6.25;4.10;;;12.80;99.90;;;;;;5046273;28;20096;-75
2023/07/05 02:48:31;;;;;;;8.77;4.50;;;12.80;99.90;;;;;;5041021;28;20150;-76
2023/07/05 02:50:56;;;;;;;5.63;4.15;;;12.90;99.90;;;;;;5050034;28;20743;-76
2023/07/05 02:53:22;;;;;;;5.78;3.85;;;12.90;99.90;;;;;;5041616;28;20029;-77
2023/07/05 02:55:47;;;;;;;5.97;3.50;;;13.00;99.90;;;;;;5021381;28;20060;-77
2023/07/05 02:58:13;;;;;;;5.82;4.43;;;12.90;99.90;;;;;;5021258;28;20030;-78
2023/07/05 03:00:38;;;;;;;6.07;3.53;;;13.00;99.90;;;;;;5043504;28;20099;-77
2023/07/05 03:03:04;;;;;;;7.25;3.65;;;13.00;99.90;;;;;;5032489;28;20030;-77
2023/07/05 03:05:29;;;;;;;4.88;3.80;;;13.00;99.90;;;;;;5049762;28;20029;-76
2023/07/05 03:07:55;;;;;;;9.20;4.30;;;13.10;99.90;;;;;;5070649;28;20008;-77
2023/07/05 03:10:20;;;;;;;5.30;3.70;;;13.10;99.90;;;;;;5042249;28;20077;-77
2023/07/05 03:12:46;;;;;;;9.18;4.25;;;13.10;99.90;;;;;;5043939;28;20052;-77
2023/07/05 03:15:12;;;;;;;7.13;4.25;;;13.10;99.90;;;;;;5041216;28;20040;-76
2023/07/05 03:17:38;;;;;;;8.40;4.28;;;13.10;99.90;;;;;;5023197;28;20032;-76
2023/07/05 03:20:04;;;;;;;8.23;4.07;;;13.10;99.90;;;;;;5036838;28;20032;-77
2023/07/05 03:22:29;;;;;;;8.02;4.28;;;13.10;99.90;;;;;;5031959;28;20036;-76
2023/07/05 03:24:55;;;;;;;8.65;4.93;;;13.20;99.90;;;;;;5044772;28;20036;-77
2023/07/05 03:27:21;;;;;;;4.85;3.67;;;13.20;99.90;;;;;;5016551;28;20125;-76
2023/07/05 03:29:47;;;;;;;6.28;4.40;;;13.30;99.90;;;;;;5018874;28;20079;-78
2023/07/05 03:32:13;;;;;;;5.03;3.85;;;13.30;99.90;;;;;;5030527;28;20530;-77
2023/07/05 03:34:39;;;;;;;5.80;4.63;;;13.30;99.90;;;;;;5044112;28;20056;-78
2023/07/05 03:37:05;;;;;;;7.70;3.78;;;13.30;99.90;;;;;;5020841;28;20124;-77
2023/07/05 03:39:30;;;;;;;6.10;3.70;;;13.30;99.90;;;;;;5042800;28;20087;-78
2023/07/05 03:41:56;;;;;;;4.72;3.85;;;13.40;99.90;;;;;;5023260;28;20031;-77
2023/07/05 03:44:22;;;;;;;5.18;3.85;;;13.40;99.90;;;;;;5042927;28;20048;-77
2023/07/05 03:46:51;;;;;;;6.88;3.90;;;13.40;99.90;;;;;;5023412;28;20031;-78
2023/07/05 03:49:17;;;;;;;6.75;3.80;;;13.40;99.90;;;;;;5029397;28;20037;-77
2023/07/05 03:51:43;;;;;;;4.10;3.35;;;13.40;99.90;;;;;;5027050;28;20025;-77
2023/07/05 03:54:09;;;;;;;5.82;3.78;;;13.50;99.90;;;;;;5029299;28;20124;-77
2023/07/05 03:56:35;;;;;;;6.85;3.85;;;13.50;99.90;;;;;;5026184;28;20045;-78
2023/07/05 03:59:02;;;;;;;5.95;3.78;;;13.50;99.90;;;;;;5021252;28;20036;-79
2023/07/05 04:01:29;;;;;;;4.63;3.90;;;13.60;99.90;;;;;;5047419;28;20029;-78
2023/07/05 04:03:57;;;;;;;5.75;4.28;;;13.50;99.90;;;;;;5045771;28;20025;-78
2023/07/05 04:06:26;;;;;;;6.43;4.65;;;13.60;99.90;;;;;;5036280;28;20025;-77
2023/07/05 04:08:52;;;;;;;8.65;3.80;;;13.50;99.90;;;;;;5028069;28;20025;-78
2023/07/05 04:11:18;;;;;;;9.20;3.88;;;13.60;99.90;;;;;;5042047;28;20705;-77
2023/07/05 04:13:48;;;;;;;11.35;4.22;;;13.50;99.90;;;;;;5028885;28;20020;-78
2023/07/05 04:16:16;;;;;;;6.38;4.13;;;13.50;99.90;;;;;;5025746;28;20032;-78
2023/07/05 04:18:43;;;;;;;6.20;4.03;;;13.50;99.90;;;;;;5028522;28;20113;-78
2023/07/05 04:21:10;;;;;;;8.80;4.97;;;13.50;99.90;;;;;;5019072;28;20129;-79
2023/07/05 04:23:36;;;;;;;7.47;4.13;;;13.40;99.90;;;;;;5014596;28;20075;-79
2023/07/05 04:26:06;;;;;;;7.13;4.80;;;13.40;99.90;;;;;;5040202;28;20025;-78
2023/07/05 04:28:33;;;;;;;7.07;4.32;;;13.40;99.90;;;;;;5017967;28;20079;-80
2023/07/05 04:31:00;;;;;;;6.72;4.35;;;13.40;99.90;;;;;;5042699;28;20056;-79
2023/07/05 04:33:26;;;;;;;7.95;4.50;;;13.40;99.90;;;;;;5017475;28;20083;-80
2023/07/05 04:35:54;;;;;;;7.85;4.35;;;13.30;99.90;;;;;;5016561;28;20017;-80
2023/07/05 04:38:20;;;;;;;7.35;4.25;;;13.30;99.90;;;;;;5028505;28;20044;-82
2023/07/05 04:40:46;;;;;;;6.53;5.10;;;13.30;99.90;;;;;;5023577;28;20484;-82
2023/07/05 04:43:11;;;;;;;6.30;4.90;;;13.30;99.90;;;;;;5027859;28;20036;-81
2023/07/05 04:45:37;;;;;;;8.45;5.25;;;13.30;99.90;;;;;;5040660;28;20017;-81
2023/07/05 04:48:03;;;;;;;9.43;5.57;;;13.20;99.90;;;;;;5024158;28;20029;-82
2023/07/05 04:50:29;;;;;;;11.13;5.80;;;13.20;99.90;;;;;;5044713;28;20026;-82
2023/07/05 04:52:56;;;;;;;7.28;5.32;;;13.20;99.90;;;;;;5031074;28;20029;-81
2023/07/05 04:55:22;;;;;;;12.15;5.28;;;13.20;99.90;;;;;;5024514;28;20488;-84
2023/07/05 04:57:47;;;;;;;10.75;5.32;;;13.20;99.90;;;;;;5028335;28;20029;-82
2023/07/05 05:00:14;;;;;;;6.15;5.07;;;13.20;99.90;;;;;;5027438;28;20040;-83
2023/07/05 05:02:39;;;;;;;9.48;5.80;;;13.20;99.90;;;;;;5040456;28;20022;-80
2023/07/05 05:05:06;;;;;;;10.05;6.35;;;13.20;99.90;;;;;;5016331;28;20381;-82
2023/07/05 05:07:32;;;;;;;8.95;5.82;;;13.20;99.90;;;;;;5025559;28;20430;-80
2023/07/05 05:09:59;;;;;;;9.30;5.57;;;13.20;99.90;;;;;;5022598;28;20025;-81
2023/07/05 05:12:25;;;;;;;9.13;6.50;;;13.20;99.90;;;;;;5028685;28;20025;-81
2023/07/05 05:14:50;;;;;;;10.30;6.40;;;13.20;99.90;;;;;;5024637;28;20067;-82
2023/07/05 05:17:16;;;;;;;7.90;6.22;;;13.20;99.90;;;;;;5021158;28;20035;-81
2023/07/05 05:19:42;;;;;;;11.15;6.88;;;13.20;99.90;;;;;;5048407;28;20114;-81
2023/07/05 05:22:11;;;;;;;10.95;6.03;;;13.20;99.90;;;;;;5016616;28;20484;-82
2023/07/05 05:24:37;;;;;;;7.18;5.55;;;13.20;99.90;;;;;;5028244;28;20051;-79
2023/07/05 05:27:03;;;;;;;10.13;7.15;;;13.20;99.90;;;;;;5024019;28;20536;-82
2023/07/05 05:29:29;;;;;;;7.55;6.75;;;13.20;99.90;;;;;;5028425;28;20029;-80
2023/07/05 05:31:56;;;;;;;11.63;6.72;;;13.20;99.90;;;;;;5026623;28;20033;-81
2023/07/05 05:34:24;;;;;;;10.45;6.90;;;13.30;99.90;;;;;;5028452;28;20047;-79
2023/07/05 05:36:50;;;;;;;12.07;6.45;;;13.20;99.90;;;;;;5042058;28;20488;-81
2023/07/05 05:39:15;;;;;;;13.23;7.18;;;13.30;99.90;;;;;;5040480;28;20084;-82
2023/07/05 05:41:41;;;;;;;10.07;7.03;;;13.30;99.90;;;;;;5023352;28;20602;-83
2023/07/05 05:44:07;;;;;;;17.73;7.00;;;13.20;99.90;;;;;;5038820;28;20041;-81
2023/07/05 05:46:33;;;;;;;10.02;6.80;;;13.20;99.90;;;;;;5039472;28;20074;-83
2023/07/05 05:48:59;;;;;;;9.32;7.15;;;13.20;99.90;;;;;;5026397;28;20043;-83
2023/07/05 05:51:24;;;;;;;8.95;6.78;;;13.30;99.90;;;;;;5030010;28;20032;-82
2023/07/05 05:53:50;;;;;;;11.18;6.95;;;13.20;99.90;;;;;;5026136;28;20025;-81
2023/07/05 05:56:16;;;;;;;8.18;6.80;;;13.20;99.90;;;;;;5033272;28;20025;-84
2023/07/05 05:58:41;;;;;;;9.35;7.18;;;13.30;99.90;;;;;;5041847;28;20522;-83
2023/07/05 06:01:07;;;;;;;8.48;7.35;;;13.30;99.90;;;;;;5022754;28;20076;-82
2023/07/05 06:03:32;;;;;;;9.80;7.82;;;13.30;99.90;;;;;;5025067;28;20026;-82
2023/07/05 06:05:58;;;;;;;7.90;7.10;;;13.30;99.90;;;;;;5023854;28;20532;-82
2023/07/05 06:08:24;;;;;;;11.60;7.50;;;13.30;99.90;;;;;;5025561;28;20042;-82
2023/07/05 06:11:02;;;;;;;10.90;6.63;;;13.30;99.90;;;;;;5034976;28;20013;-81
2023/07/05 06:13:29;;;;;;;7.88;6.90;;;13.30;99.90;;;;;;5022846;28;20759;-80
2023/07/05 06:16:02;;;;;;;10.77;7.53;;;13.30;99.90;;;;;;5035868;28;20021;-81
2023/07/05 06:18:28;;;;;;;13.30;6.97;;;13.30;99.90;;;;;;5045450;28;20043;-80
2023/07/05 06:20:54;;;;;;;9.60;7.53;;;13.40;99.90;;;;;;5019205;28;20025;-82
2023/07/05 06:23:21;;;;;;;9.90;6.95;;;13.40;99.90;;;;;;5036148;28;20489;-81
2023/07/05 06:25:47;;;;;;;12.80;8.05;;;13.40;99.90;;;;;;5022568;28;20488;-79
2023/07/05 06:28:14;;;;;;;11.25;7.43;;;13.40;99.90;;;;;;5013410;28;20021;-78
2023/07/05 06:30:40;;;;;;;11.52;7.40;;;13.40;99.90;;;;;;5026535;28;20033;-80
2023/07/05 06:33:05;;;;;;;10.02;7.50;;;13.40;99.90;;;;;;5025591;28;20032;-81
2023/07/05 06:35:32;;;;;;;12.10;8.02;;;13.40;99.90;;;;;;5027327;28;20412;-82
2023/07/05 06:37:58;;;;;;;11.02;7.55;;;13.40;99.90;;;;;;5026520;28;20031;-77
2023/07/05 06:40:23;;;;;;;12.15;7.88;;;13.40;99.90;;;;;;5039127;28;20029;-79
2023/07/05 06:42:49;;;;;;;8.20;7.05;;;13.40;99.90;;;;;;5040413;28;20462;-78
2023/07/05 06:45:15;;;;;;;8.68;7.85;;;13.40;99.90;;;;;;5042863;28;20396;-77
2023/07/05 06:47:41;;;;;;;12.77;7.90;;;13.50;99.90;;;;;;5027107;28;20105;-79
2023/07/05 06:50:07;;;;;;;9.75;8.13;;;13.50;99.90;;;;;;5038663;28;20025;-79
2023/07/05 06:52:34;;;;;;;10.10;8.70;;;13.50;99.90;;;;;;5033698;28;20029;-82
2023/07/05 06:54:59;;;;;;;11.60;9.20;;;13.50;99.90;;;;;;5030411;28;20021;-79
2023/07/05 06:57:25;;;;;;;10.82;8.20;;;13.60;99.90;;;;;;5031184;28;20040;-82
2023/07/05 06:59:50;;;;;;;11.00;8.32;;;13.60;99.90;;;;;;5031060;28;20086;-82
2023/07/05 07:02:16;;;;;;;10.68;8.23;;;13.60;99.90;;;;;;5034416;28;20149;-83
2023/07/05 07:04:41;;;;;;;14.70;7.93;;;13.60;99.90;;;;;;5027241;28;20021;-81
2023/07/05 07:07:07;;;;;;;9.50;8.40;;;13.60;99.90;;;;;;5028901;28;20028;-82
2023/07/05 07:09:33;;;;;;;12.25;8.57;;;13.60;99.90;;;;;;5031544;28;20053;-80
2023/07/05 07:11:59;;;;;;;10.02;8.18;;;13.50;99.90;;;;;;5017612;28;20021;-80
2023/07/05 07:14:25;;;;;;;15.45;8.38;;;13.60;99.90;;;;;;5046873;28;20033;-79
2023/07/05 07:16:51;;;;;;;10.43;7.97;;;13.60;99.90;;;;;;5039756;28;20021;-81
2023/07/05 07:19:17;;;;;;;10.73;8.38;;;13.60;99.90;;;;;;5045962;28;20085;-81
2023/07/05 07:21:43;;;;;;;9.77;7.80;;;13.60;99.90;;;;;;5027778;28;20029;-82
2023/07/05 07:24:09;;;;;;;11.48;8.18;;;13.60;99.90;;;;;;5029051;28;20017;-81
2023/07/05 07:26:36;;;;;;;11.13;8.20;;;13.60;99.90;;;;;;5039377;28;20075;-81
2023/07/05 07:29:02;;;;;;;14.40;8.60;;;13.60;99.90;;;;;;5021672;28;20075;-82
2023/07/05 07:31:30;;;;;;;10.65;7.82;;;13.60;99.90;;;;;;5031267;28;20448;-82
2023/07/05 07:33:56;;;;;;;12.05;8.07;;;13.60;99.90;;;;;;5027829;28;20024;-80
2023/07/05 07:36:25;;;;;;;10.98;8.48;;;13.50;99.90;;;;;;5032177;28;20500;-81
2023/07/05 07:38:51;;;;;;;11.07;7.75;;;13.60;99.90;;;;;;5018937;28;20112;-82
2023/07/05 07:41:23;;;;;;;11.13;8.05;;;13.60;99.90;;;;;;5021658;28;20033;-80
2023/07/05 07:43:50;;;;;;;8.52;7.22;;;13.60;99.90;;;;;;5026376;28;20016;-80
2023/07/05 07:46:18;;;;;;;14.40;8.23;;;13.70;99.90;;;;;;5028364;28;20518;-80
2023/07/05 07:48:47;;;;;;;9.63;6.97;;;13.70;99.90;;;;;;5030254;28;20049;-81
2023/07/05 07:51:13;;;;;;;11.68;7.82;;;13.80;99.90;;;;;;5028961;28;20547;-80
2023/07/05 07:53:39;;;;;;;10.23;7.32;;;13.80;99.90;;;;;;5037802;28;20052;-81
2023/07/05 07:56:12;;;;;;;9.50;7.72;;;13.80;99.90;;;;;;5045033;28;20058;-81
2023/07/05 07:58:41;;;;;;;9.65;7.70;;;13.90;99.90;;;;;;5022633;28;20028;-81
2023/07/05 08:01:16;;;;;;;10.52;8.68;;;13.90;99.90;;;;;;5041302;28;20496;-81
2023/07/05 08:03:42;;;;;;;10.15;6.85;;;13.90;99.90;;;;;;5028928;28;20021;-79
2023/07/05 08:06:09;;;;;;;9.85;8.85;;;14.00;99.90;;;;;;5044581;28;20481;-80
2023/07/05 08:08:36;;;;;;;11.35;7.97;;;14.10;99.90;;;;;;5027584;28;20476;-80
2023/07/05 08:11:03;;;;;;;10.00;7.50;;;14.10;99.90;;;;;;5027546;28;20025;-81
2023/07/05 08:13:30;;;;;;;11.93;8.27;;;14.20;99.90;;;;;;5045935;28;20021;-81
2023/07/05 08:15:57;;;;;;;9.07;7.95;;;14.30;99.90;;;;;;5029141;28;20699;-81
2023/07/05 08:18:23;;;;;;;12.35;7.88;;;14.30;99.90;;;;;;5031306;28;20371;-79
2023/07/05 08:20:49;;;;;;;11.32;8.18;;;14.40;99.90;;;;;;5047611;28;20082;-79
2023/07/05 08:23:14;;;;;;;9.82;8.00;;;14.50;99.90;;;;;;5041606;28;20508;-80
2023/07/05 08:25:42;;;;;;;11.25;8.93;;;14.60;99.90;;;;;;5028773;28;20022;-79
2023/07/05 08:28:10;;;;;;;8.43;6.95;;;14.70;99.90;;;;;;5015307;28;20022;-80
2023/07/05 08:30:37;;;;;;;9.25;7.93;;;14.70;99.90;;;;;;5027769;28;20026;-80
2023/07/05 08:33:06;;;;;;;12.13;8.30;;;14.70;99.90;;;;;;5029138;28;20056;-80
2023/07/05 08:35:32;;;;;;;9.82;7.90;;;14.70;99.90;;;;;;5046459;28;20021;-80
2023/07/05 08:37:59;;;;;;;8.52;7.63;;;14.80;99.90;;;;;;5047895;28;20035;-80
2023/07/05 08:40:33;;;;;;;8.27;7.47;;;14.90;99.90;;;;;;5014823;28;20028;-80
2023/07/05 08:43:20;;;;;;;9.93;7.60;;;14.90;99.90;;;;;;5026494;28;20029;-81
2023/07/05 08:45:50;;;;;;;8.95;6.97;;;15.00;99.90;;;;;;5020183;28;20017;-80
2023/07/05 08:48:16;;;;;;;9.88;7.55;;;15.10;99.90;;;;;;5027331;28;20018;-80
2023/07/05 08:50:56;;;;;;;12.68;9.00;;;15.20;99.90;;;;;;5025200;28;20029;-80
2023/07/05 08:53:23;;;;;;;12.02;8.52;;;15.30;99.90;;;;;;5042447;28;20048;-78
2023/07/05 08:56:09;;;;;;;9.80;7.80;;;15.30;99.90;;;;;;5027687;28;20456;-80
2023/07/05 08:58:45;;;;;;;13.35;9.13;;;15.40;99.90;;;;;;5023024;28;20026;-79
2023/07/05 09:01:34;;;;;;;9.93;8.02;;;15.50;99.90;;;;;;5022899;28;20041;-80
2023/07/05 09:03:59;;;;;;;9.68;7.93;;;15.60;99.90;;;;;;5038479;28;20021;-79
2023/07/05 09:06:28;;;;;;;10.98;7.82;;;15.70;99.90;;;;;;5031333;28;20116;-80
2023/07/05 09:09:18;;;;;;;8.63;7.78;;;15.80;99.90;;;;;;5029003;28;20031;-80
2023/07/05 09:12:11;;;;;;;9.45;7.40;;;15.90;99.90;;;;;;5042707;28;20059;-81
2023/07/05 09:15:01;;;;;;;10.57;7.85;;;16.10;99.90;;;;;;5046260;28;20032;-79
2023/07/05 09:17:45;;;;;;;9.07;7.43;;;16.20;99.90;;;;;;5037799;28;20030;-80
2023/07/05 09:20:29;;;;;;;8.00;6.85;;;16.30;99.90;;;;;;5037853;28;20030;-82
2023/07/05 09:22:59;;;;;;;8.68;7.30;;;16.30;99.90;;;;;;5025208;28;20037;-80
2023/07/05 09:25:27;;;;;;;7.72;6.38;;;16.40;99.90;;;;;;5043172;28;20037;-81
2023/07/05 09:28:04;;;;;;;8.82;5.78;;;16.40;99.90;;;;;;5037668;28;20049;-82
2023/07/05 09:30:30;;;;;;;5.35;3.85;;;16.30;99.90;;;;;;5039652;28;20108;-81
2023/07/05 09:33:13;;;;;;;4.03;3.35;;;16.20;99.90;;;;;;5044783;28;20243;-77
2023/07/05 09:35:43;;;;;;;4.25;3.85;;;16.10;99.90;;;;;;5027769;28;20044;-79
2023/07/05 09:38:28;;;;;;;4.28;2.97;;;16.20;99.90;;;;;;5022545;28;20029;-80
2023/07/05 09:41:06;;;;;;;5.05;2.83;;;16.30;99.90;;;;;;5033827;28;20064;-81
2023/07/05 09:43:34;;;;;;;3.08;2.63;;;16.50;99.90;;;;;;5022552;28;20033;-79
2023/07/05 09:46:03;;;;;;;3.38;2.40;;;16.60;99.90;;;;;;5042681;28;20029;-80
2023/07/05 09:48:31;;;;;;;4.35;2.67;;;16.60;99.90;;;;;;5026095;28;20060;-78
2023/07/05 09:51:03;;;;;;;3.67;2.45;;;16.60;99.90;;;;;;5025061;28;20037;-79
2023/07/05 09:53:47;;;;;;;3.65;2.50;;;16.60;99.90;;;;;;5029106;28;20048;-78
2023/07/05 09:56:27;;;;;;;4.07;2.72;;;16.80;99.90;;;;;;5021430;28;20029;-78
2023/07/05 09:59:17;;;;;;;2.60;2.40;;;16.90;99.90;;;;;;5043440;28;20061;-78
2023/07/05 10:01:48;;;;;;;3.08;2.60;;;17.00;99.90;;;;;;5018490;28;20040;-80
2023/07/05 10:04:15;;;;;;;2.75;2.55;;;17.00;99.90;;;;;;5044136;28;20013;-79
2023/07/05 10:06:44;;;;;;;3.63;2.30;;;17.10;99.90;;;;;;5022818;28;20068;-78
2023/07/05 10:09:16;;;;;;;2.75;2.38;;;17.20;99.90;;;;;;5027309;28;20029;-80
2023/07/05 10:11:47;;;;;;;5.43;2.65;;;17.30;99.90;;;;;;5023369;28;20021;-80
2023/07/05 10:14:16;;;;;;;3.22;2.60;;;17.40;99.90;;;;;;5044110;28;20013;-80
2023/07/05 10:17:03;;;;;;;4.28;2.75;;;17.40;99.90;;;;;;5024779;28;20029;-81
2023/07/05 10:19:49;;;;;;;2.70;2.22;;;17.30;99.90;;;;;;5028872;28;20033;-79
2023/07/05 10:22:30;;;;;;;3.17;2.50;;;17.10;99.90;;;;;;5033744;28;20059;-78
2023/07/05 10:25:13;;;;;;;2.88;2.58;;;17.10;99.90;;;;;;5040689;28;20032;-80
2023/07/05 10:27:43;;;;;;;3.80;2.40;;;17.10;99.90;;;;;;5041307;28;20030;-76
2023/07/05 10:30:13;;;;;;;2.72;2.38;;;17.30;99.90;;;;;;5037763;28;20024;-80
2023/07/05 10:32:40;;;;;;;6.18;2.25;;;17.40;99.90;;;;;;5042674;28;20018;-79
2023/07/05 10:35:24;;;;;;;5.78;2.33;;;17.40;99.90;;;;;;5022284;28;20510;-79
2023/07/05 10:37:52;;;;;;;3.30;2.50;;;17.50;99.90;;;;;;5027261;28;20049;-79
2023/07/05 10:40:19;;;;;;;3.17;2.08;;;17.60;99.90;;;;;;5022631;28;20109;-79
2023/07/05 10:42:49;;;;;;;3.45;2.00;;;17.70;99.90;;;;;;5027133;28;20092;-80
2023/07/05 10:45:18;;;;;;;3.17;2.30;;;17.80;99.90;;;;;;5035689;28;20511;-79
2023/07/05 10:47:46;;;;;;;3.88;2.28;;;17.80;99.90;;;;;;5015111;28;20479;-81
2023/07/05 10:50:14;;;;;;;3.20;2.20;;;17.70;99.90;;;;;;5026306;28;20017;-80
2023/07/05 10:52:53;;;;;;;2.85;2.42;;;17.70;99.90;;;;;;5027997;28;20084;-81
2023/07/05 10:55:22;;;;;;;5.88;2.33;;;17.60;99.90;;;;;;5026653;28;20121;-81
2023/07/05 10:58:04;;;;;;;4.82;2.33;;;17.50;99.90;;;;;;5026833;28;20021;-79
2023/07/05 11:00:41;;;;;;;4.60;2.00;;;17.40;99.90;;;;;;5027731;28;20060;-78
2023/07/05 11:03:23;;;;;;;2.25;1.83;;;17.40;99.90;;;;;;5042355;28;20026;-79
2023/07/05 11:05:51;;;;;;;3.20;1.90;;;17.40;99.90;;;;;;5023820;28;20017;-79
2023/07/05 11:08:20;;;;;;;2.20;1.55;;;17.30;99.90;;;;;;5025554;28;20026;-81
2023/07/05 11:10:47;;;;;;;2.72;1.90;;;17.30;99.90;;;;;;5016816;28;20103;-78
2023/07/05 11:13:18;;;;;;;3.08;2.13;;;17.20;99.90;;;;;;5046181;28;20021;-80
2023/07/05 11:15:45;;;;;;;3.17;1.80;;;17.10;99.90;;;;;;5036345;28;20021;-78
2023/07/05 11:18:20;;;;;;;3.08;2.00;;;17.10;99.90;;;;;;5039316;28;20101;-78
2023/07/05 11:20:47;;;;;;;3.03;1.52;;;17.10;99.90;;;;;;5051939;28;20029;-80
2023/07/05 11:23:33;;;;;;;6.38;1.98;;;17.30;99.90;;;;;;5042234;28;20032;-80
2023/07/05 11:26:00;;;;;;;4.20;1.80;;;17.40;99.90;;;;;;5045515;28;20489;-79
2023/07/05 11:28:44;;;;;;;5.20;1.80;;;17.60;99.90;;;;;;5019191;28;20060;-80
2023/07/05 11:31:29;;;;;;;4.28;1.48;;;17.80;99.90;;;;;;5046146;28;20377;-79
2023/07/05 11:34:23;;;;;;;7.77;2.10;;;18.00;99.90;;;;;;5041645;28;20040;-79
2023/07/05 11:37:04;;;;;;;4.45;2.15;;;18.10;99.90;;;;;;5028436;28;20075;-79
2023/07/05 11:39:43;;;;;;;2.72;1.45;;;18.20;99.90;;;;;;5021834;28;20025;-80
2023/07/05 11:42:12;;;;;;;2.85;1.27;;;18.20;99.90;;;;;;5028207;28;20113;-83
2023/07/05 11:45:08;;;;;;;2.05;1.17;;;18.20;99.90;;;;;;5026130;28;20029;-78
2023/07/05 11:47:34;;;;;;;1.75;1.20;;;18.20;99.90;;;;;;5030326;28;20026;-81
2023/07/05 11:50:08;;;;;;;2.80;1.30;;;18.20;99.90;;;;;;5047081;28;20117;-79
2023/07/05 11:52:41;;;;;;;3.85;1.60;;;18.20;99.90;;;;;;5050189;28;20045;-80
2023/07/05 11:55:12;;;;;;;2.67;1.10;;;18.20;99.90;;;;;;5029179;28;20036;-78
2023/07/05 11:57:44;;;;;;;1.60;1.50;;;17.90;99.90;;;;;;5049408;28;20039;-78
2023/07/05 12:00:19;;;;;;;2.13;1.40;;;17.80;99.90;;;;;;5028844;28;20037;-79
2023/07/05 12:02:45;;;;;;;3.45;1.40;;;17.60;99.90;;;;;;5029497;28;20064;-77
2023/07/05 12:05:15;;;;;;;3.15;1.45;;;17.50;99.90;;;;;;5022756;28;20025;-79
2023/07/05 12:07:44;;;;;;;3.22;1.63;;;17.50;99.90;;;;;;5029871;28;20059;-78
2023/07/05 12:10:18;;;;;;;2.03;1.40;;;17.60;99.90;;;;;;5023814;28;20022;-80
2023/07/05 12:12:44;;;;;;;2.83;1.60;;;17.70;99.90;;;;;;5050800;28;20556;-80
2023/07/05 12:15:11;;;;;;;3.40;1.95;;;17.80;99.90;;;;;;5019273;28;20022;-79
2023/07/05 12:17:38;;;;;;;2.08;1.17;;;17.80;99.90;;;;;;5024800;28;20025;-79
2023/07/05 12:20:24;;;;;;;1.73;1.25;;;17.90;99.90;;;;;;5021141;28;20038;-79
2023/07/05 12:22:50;;;;;;;2.55;1.35;;;18.00;99.90;;;;;;5016756;28;20041;-80
2023/07/05 12:25:15;;;;;;;6.22;1.35;;;18.00;99.90;;;;;;5016624;28;20025;-78
2023/07/05 12:27:42;;;;;;;1.40;1.13;;;18.00;99.90;;;;;;5022852;28;20017;-78
2023/07/05 12:30:18;;;;;;;4.32;1.35;;;17.90;99.90;;;;;;5034829;28;20029;-80
2023/07/05 12:32:48;;;;;;;2.17;1.25;;;17.80;99.90;;;;;;5026713;28;20104;-78
2023/07/05 12:35:22;;;;;;;3.97;1.58;;;17.70;99.90;;;;;;5042404;28;20025;-78
2023/07/05 12:37:50;;;;;;;3.25;1.42;;;17.60;99.90;;;;;;5016494;28;20094;-77
2023/07/05 12:40:16;;;;;;;1.83;1.00;;;17.60;99.90;;;;;;5019874;28;20512;-77
2023/07/05 12:42:58;;;;;;;3.70;1.27;;;17.70;99.90;;;;;;5035826;28;20427;-78
2023/07/05 12:45:33;;;;;;;1.80;1.13;;;17.70;99.90;;;;;;5020905;28;20092;-80
2023/07/05 12:48:14;;;;;;;2.22;0.95;;;17.70;99.90;;;;;;5024940;28;20159;-80
2023/07/05 12:50:41;;;;;;;1.40;1.17;;;17.70;99.90;;;;;;5025009;28;20026;-79
2023/07/05 12:53:16;;;;;;;10.80;1.77;;;17.70;99.90;;;;;;5048509;28;20055;-79
2023/07/05 12:55:54;;;;;;;3.05;1.13;;;17.60;99.90;;;;;;5043805;28;20108;-80
2023/07/05 12:58:23;;;;;;;2.45;1.58;;;17.50;99.90;;;;;;5023101;28;20514;-79
2023/07/05 13:00:50;;;;;;;2.00;1.45;;;17.40;99.90;;;;;;5049446;28;20126;-79